Bookmark and Share
Track history (hours):
 

Maersk Vallvik

Last reported at 2014-Apr-03 06:11 UTC. Time now 2014-Apr-20 11:45 UTC.
Position N 26°00' W 077°48'.
Warning: this ship's position is 17 days out of date.

Length 180 m; draft 9.5 m.

Type: Cargo ship. MMSI: 564837000.

NotesDate/timePositionNaut miles runAvg speedWind from/ knotsBaromVisibWave heightAir tempDewpointWater temp
2014-Apr-03 06:11N 26°00' W 077°48'914.5
2014-Apr-03 05:33N 26°04' W 077°57'1514.8
2014-Apr-03 04:33N 26°11' W 078°12'2014.9
2014-Apr-03 03:14N 26°21' W 078°31'1214.7
2014-Apr-03 02:27N 26°25' W 078°43'7 1.1
2014-Apr-02 20:10N 26°32' W 078°46'6 0.8
2014-Apr-02 12:21N 26°28' W 078°51'1 1.7
2014-Apr-02 11:31N 26°28' W 078°53'1 0.9
2014-Apr-02 10:23N 26°28' W 078°52'1 0.9
2014-Apr-02 09:30N 26°28' W 078°51'1111.7
2014-Apr-02 08:33N 26°35' W 079°01'2214.9
2014-Apr-02 07:04N 26°54' W 079°13'914.3
2014-Apr-02 06:26N 27°02' W 079°17'1314.6
2014-Apr-02 05:33N 27°15' W 079°17'1714.6
2014-Apr-02 04:21N 27°33' W 079°17'  
2014-Mar-29 23:31N 36°46' W 075°43'9 9.3
2014-Mar-29 22:33N 36°51' W 075°52'9 9.1
2014-Mar-29 21:33N 36°57' W 076°01'1414.4
2014-Mar-29 20:33N 36°60' W 076°18'7 7.2
2014-Mar-29 19:32N 36°53' W 076°21'0 0.0
2014-Mar-29 18:32N 36°53' W 076°21'0 0.0
2014-Mar-29 17:32N 36°53' W 076°21'0 0.0
2014-Mar-29 16:26N 36°53' W 076°21'0 0.0
2014-Mar-29 15:32N 36°53' W 076°21'0 0.0
2014-Mar-29 14:26N 36°53' W 076°21'0 0.0
2014-Mar-29 13:32N 36°53' W 076°21'0 0.0
2014-Mar-29 12:29N 36°53' W 076°21'0 0.0
2014-Mar-29 11:32N 36°53' W 076°21'0 0.0
2014-Mar-29 10:32N 36°53' W 076°21'0 0.0
2014-Mar-29 09:33N 36°53' W 076°21'7 6.8
2014-Mar-29 08:33N 36°59' W 076°19'1414.1
2014-Mar-29 07:34N 36°57' W 076°02'1312.6
2014-Mar-29 06:33N 37°08' W 076°09'1817.9
2014-Mar-29 05:33N 37°26' W 076°05'5416.5
2014-Mar-29 02:18N 38°19' W 076°18'1318.2
2014-Mar-29 01:33N 38°31' W 076°25'1817.5
2014-Mar-29 00:33N 38°49' W 076°25'1615.8
2014-Mar-28 23:33N 39°04' W 076°24'1111.2
2014-Mar-28 22:34N 39°13' W 076°32'2 1.9
2014-Mar-28 21:33N 39°15' W 076°33'0 0.0
2014-Mar-28 20:33N 39°15' W 076°33'0 0.0
2014-Mar-28 19:33N 39°15' W 076°33'0 0.0
2014-Mar-28 18:33N 39°15' W 076°33'0 0.0
2014-Mar-28 17:33N 39°15' W 076°33'0 0.0
2014-Mar-28 16:33N 39°15' W 076°33'0 0.0
2014-Mar-28 15:33N 39°15' W 076°33'0 0.0
2014-Mar-28 14:33N 39°15' W 076°33'0 0.0
2014-Mar-28 13:33N 39°15' W 076°33'0 0.0
2014-Mar-28 12:33N 39°15' W 076°33'0 0.0
2014-Mar-28 11:33N 39°15' W 076°33'0 0.0
2014-Mar-28 10:33N 39°15' W 076°33'3 2.8
2014-Mar-28 09:33N 39°13' W 076°31'1211.5
2014-Mar-28 08:33N 39°03' W 076°23'1717.2
2014-Mar-28 07:33N 38°46' W 076°26'1717.3
2014-Mar-28 06:33N 38°29' W 076°23'123 6.3
2014-Mar-27 11:14N 39°16' W 073°58'1115.4
2014-Mar-27 10:33N 39°26' W 073°56'1515.4
2014-Mar-27 09:33N 39°41' W 073°52'1515.3
2014-Mar-27 08:33N 39°57' W 073°50'2411.6
2014-Mar-27 06:31N 40°20' W 073°49'8 8.8
2014-Mar-27 05:33N 40°28' W 073°52'1211.7
2014-Mar-27 04:33N 40°37' W 074°03'5 5.2
2014-Mar-27 03:33N 40°40' W 074°09'1 1.4
2014-Mar-27 02:33N 40°41' W 074°09'0 0.0
2014-Mar-27 01:33N 40°41' W 074°09'0 0.0
2014-Mar-27 00:33N 40°41' W 074°09'0 0.0
2014-Mar-26 23:33N 40°41' W 074°09'0 0.0
2014-Mar-26 20:33N 40°41' W 074°09'0 0.0
2014-Mar-26 19:33N 40°41' W 074°09'0 0.0
2014-Mar-26 17:33N 40°41' W 074°09'0 0.0
2014-Mar-26 16:33N 40°41' W 074°09'0 0.0
2014-Mar-26 15:33N 40°41' W 074°09'0 0.0
2014-Mar-26 14:33N 40°41' W 074°09'0 0.0
2014-Mar-26 13:33N 40°41' W 074°09'0 0.0
2014-Mar-26 12:33N 40°41' W 074°09'0 0.3
2014-Mar-26 11:33N 40°41' W 074°09'2 2.2
2014-Mar-26 10:33N 40°39' W 074°08'7 7.3
2014-Mar-26 09:33N 40°33' W 074°02'1310.7
2014-Mar-26 08:18N 40°26' W 073°47'  

Dump ship's entire track history

sailing weather and tide predictions

Maersk Vallvik — 9V8839 — position and weather